Time;durP1;ratioP1;P1;durP2;ratioP2;P2;SDS_P1;SDS_P2;PMS_P1;PMS_P2;Temp;Humidity;BMP_temperature;BMP_pressure;BME280_temperature;BME280_humidity;BME280_pressure;Samples;Min_cycle;Max_cycle;Signal;HPM_P1;HPM_P2
2022/12/16 00:01:25;;;;;;;6.43;1.80;;;;;;;-0.54;100.00;100847.69;4961015;28;20056;-85
2022/12/16 00:03:54;;;;;;;5.95;2.55;;;;;;;-0.68;100.00;100821.81;4960676;28;20765;-85
2022/12/16 00:06:22;;;;;;;4.43;1.77;;;;;;;-0.58;100.00;100831.34;4960703;28;20066;-85
2022/12/16 00:08:49;;;;;;;5.50;1.83;;;;;;;-0.65;100.00;100818.44;4943584;28;20478;-86
2022/12/16 00:11:18;;;;;;;7.68;2.40;;;;;;;-0.72;100.00;100801.22;4941919;28;20052;-86
2022/12/16 00:13:46;;;;;;;4.28;1.50;;;;;;;-0.51;100.00;100845.16;4941474;28;20055;-86
2022/12/16 00:16:15;;;;;;;7.00;1.90;;;;;;;-0.49;100.00;100837.44;4939844;29;20047;-86
2022/12/16 00:18:42;;;;;;;5.03;1.65;;;;;;;-0.66;100.00;100812.41;4940607;28;20066;-86
2022/12/16 00:21:09;;;;;;;7.45;1.90;;;;;;;-0.73;100.00;100820.06;4943795;28;20051;-84
2022/12/16 00:23:38;;;;;;;5.85;2.78;;;;;;;-0.67;100.00;100833.84;4939680;28;20051;-83
2022/12/16 00:26:05;;;;;;;5.35;1.85;;;;;;;-0.63;100.00;100861.31;4941341;28;20047;-83
2022/12/16 00:28:32;;;;;;;4.40;1.80;;;;;;;-0.70;100.00;100845.81;4945848;28;20474;-86
2022/12/16 00:30:59;;;;;;;4.05;1.80;;;;;;;-0.72;100.00;100847.50;4951323;28;20098;-86
2022/12/16 00:33:27;;;;;;;4.32;1.80;;;;;;;-0.61;100.00;100863.91;4944421;28;20052;-86
2022/12/16 00:35:55;;;;;;;6.68;2.58;;;;;;;-0.66;100.00;100840.69;4946273;28;20102;-86
2022/12/16 00:38:24;;;;;;;8.48;2.60;;;;;;;-0.63;100.00;100858.75;4946560;28;20077;-83
2022/12/16 00:40:51;;;;;;;5.80;1.90;;;;;;;-1.04;100.00;100774.34;4963843;28;20051;-85
2022/12/16 00:43:19;;;;;;;6.28;1.73;;;;;;;-0.85;100.00;100819.09;4948837;29;20055;-85
2022/12/16 00:45:46;;;;;;;4.45;1.63;;;;;;;-0.71;100.00;100831.22;4949236;28;20140;-84
2022/12/16 00:48:14;;;;;;;7.80;2.17;;;;;;;-0.72;100.00;100832.94;4945941;28;20063;-86
2022/12/16 00:50:42;;;;;;;4.13;1.60;;;;;;;-0.73;100.00;100831.19;4949314;28;20501;-83
2022/12/16 00:53:09;;;;;;;4.15;1.58;;;;;;;-0.68;100.00;100829.53;4954562;28;20421;-86
2022/12/16 00:55:35;;;;;;;7.07;1.83;;;;;;;-0.66;100.00;100852.69;4946741;28;20474;-86
2022/12/16 00:58:02;;;;;;;3.72;1.42;;;;;;;-0.78;100.00;100831.16;4948189;28;20629;-85
2022/12/16 01:00:29;;;;;;;4.95;1.67;;;;;;;-0.72;100.00;100835.50;4949790;28;20548;-86
2022/12/16 01:02:56;;;;;;;6.03;1.73;;;;;;;-0.66;100.00;100839.84;4947439;29;20119;-85
2022/12/16 01:05:26;;;;;;;3.80;1.60;;;;;;;-0.72;100.00;100853.50;4951260;28;20513;-86
2022/12/16 01:07:54;;;;;;;6.85;1.92;;;;;;;-0.89;100.00;100825.03;4948524;28;20070;-86
2022/12/16 01:10:23;;;;;;;6.35;1.80;;;;;;;-0.90;100.00;100837.88;4949878;28;20066;-85
2022/12/16 01:12:50;;;;;;;7.20;1.88;;;;;;;-0.84;100.00;100848.22;4940182;28;20102;-86
2022/12/16 01:15:18;;;;;;;3.55;1.63;;;;;;;-0.94;100.00;100844.69;4945452;28;20063;-86
2022/12/16 01:17:45;;;;;;;4.38;1.50;;;;;;;-0.96;100.00;100842.13;4942426;28;20047;-85
2022/12/16 01:20:13;;;;;;;3.92;1.58;;;;;;;-0.89;100.00;100840.44;4946042;28;20059;-86
2022/12/16 01:22:40;;;;;;;8.57;2.05;;;;;;;-0.97;100.00;100840.38;4951594;28;20047;-86
2022/12/16 01:25:08;;;;;;;3.65;1.92;;;;;;;-0.95;100.00;100827.56;4963067;28;20055;-86
2022/12/16 01:27:35;;;;;;;3.40;1.40;;;;;;;-1.06;100.00;100827.44;4948819;28;20055;-85
2022/12/16 01:30:02;;;;;;;3.95;1.73;;;;;;;-1.12;100.00;100821.34;4960579;28;20059;-86
2022/12/16 01:32:29;;;;;;;4.47;1.63;;;;;;;-1.27;100.00;100810.06;4952098;28;20055;-86
2022/12/16 01:34:56;;;;;;;4.32;1.40;;;;;;;-1.20;100.00;100818.69;4962336;28;20102;-85
2022/12/16 01:37:23;;;;;;;5.43;1.83;;;;;;;-1.12;100.00;100824.78;4945962;28;20067;-86
2022/12/16 01:39:50;;;;;;;4.45;1.70;;;;;;;-1.25;100.00;100830.63;4947275;29;20565;-85
2022/12/16 01:42:20;;;;;;;4.00;1.38;;;;;;;-1.17;100.00;100834.13;4949881;28;20043;-85
2022/12/16 01:44:49;;;;;;;7.93;1.98;;;;;;;-1.26;100.00;100811.75;4959126;28;20059;-85
2022/12/16 01:47:27;;;;;;;6.40;2.10;;;;;;;-1.22;100.00;100821.25;4945403;28;20429;-85
2022/12/16 01:49:53;;;;;;;7.97;2.00;;;;;;;-1.22;100.00;100823.81;4945408;28;20103;-85
2022/12/16 01:52:31;;;;;;;4.05;1.60;;;;;;;-1.16;100.00;100823.88;4947462;28;20066;-86
2022/12/16 01:55:17;;;;;;;4.82;1.67;;;;;;;-1.32;100.00;100782.59;4959935;28;20070;-85
2022/12/16 01:57:49;;;;;;;5.07;1.48;;;;;;;-1.18;100.00;100792.16;4947362;29;20590;-86
2022/12/16 02:00:16;;;;;;;5.28;1.55;;;;;;;-1.08;100.00;100805.13;4944718;28;20051;-86
2022/12/16 02:02:44;;;;;;;3.45;1.60;;;;;;;-1.29;100.00;100783.50;4951158;28;20474;-86
2022/12/16 02:05:21;;;;;;;4.13;1.55;;;;;;;-1.19;100.00;100798.16;4964247;28;20082;-85
2022/12/16 02:08:15;;;;;;;4.90;1.98;;;;;;;-1.06;100.00;100804.31;4949674;28;20047;-85
2022/12/16 02:10:41;;;;;;;3.78;1.63;;;;;;;-1.10;100.00;100805.09;4947420;29;20051;-86
2022/12/16 02:13:21;;;;;;;7.50;1.98;;;;;;;-1.10;100.00;100797.38;4948025;28;20474;-86
2022/12/16 02:15:55;;;;;;;4.70;1.85;;;;;;;-1.15;100.00;100796.50;4951487;28;20474;-86
2022/12/16 02:18:47;;;;;;;6.32;1.70;;;;;;;-1.08;100.00;100803.44;4950987;28;20129;-85
2022/12/16 02:21:51;;;;;;;4.28;1.58;;;;;;;-1.17;100.00;100798.16;4951413;29;20110;-86
2022/12/16 02:24:48;;;;;;;3.53;1.77;;;;;;;-1.21;100.00;100796.41;4953394;28;20106;-85
2022/12/16 02:27:53;;;;;;;4.63;1.65;;;;;;;-1.18;100.00;100793.88;4955882;28;20402;-85
2022/12/16 02:30:45;;;;;;;6.57;1.98;;;;;;;-1.18;100.00;100796.47;4955372;28;20051;-85
2022/12/16 02:33:25;;;;;;;4.40;2.60;;;;;;;-1.21;100.00;100791.28;4952167;28;20047;-86
2022/12/16 02:36:03;;;;;;;4.18;1.65;;;;;;;-1.41;100.00;100750.81;4950954;28;20106;-86
2022/12/16 02:38:56;;;;;;;5.78;1.92;;;;;;;-1.24;100.00;100771.56;4947540;28;20098;-86
2022/12/16 02:41:26;;;;;;;4.93;1.50;;;;;;;-1.30;100.00;100773.19;4950194;29;20079;-86
2022/12/16 02:44:06;;;;;;;4.60;1.40;;;;;;;-1.31;100.00;100756.94;4953304;29;20055;-86
2022/12/16 02:46:55;;;;;;;3.13;1.38;;;;;;;-1.35;100.00;100750.91;4953524;28;20047;-86
2022/12/16 02:49:22;;;;;;;3.50;1.60;;;;;;;-1.16;100.00;100774.19;4958607;28;20479;-86
2022/12/16 02:51:49;;;;;;;5.53;1.70;;;;;;;-1.37;100.00;100761.97;4952591;28;20110;-86
2022/12/16 02:54:16;;;;;;;7.88;1.95;;;;;;;-1.49;100.00;100765.25;4957199;28;20055;-86
2022/12/16 02:57:07;;;;;;;5.97;1.90;;;;;;;-1.42;100.00;100776.47;4947396;29;20118;-85
2022/12/16 02:59:54;;;;;;;3.95;1.40;;;;;;;-1.40;100.00;100757.69;4970470;28;20047;-86
2022/12/16 03:02:27;;;;;;;4.50;1.95;;;;;;;-1.27;100.00;100768.94;4951591;29;20449;-86
2022/12/16 03:05:05;;;;;;;9.27;1.70;;;;;;;-1.36;100.00;100754.28;4950989;28;20054;-86
2022/12/16 03:07:35;;;;;;;2.33;1.40;;;;;;;-1.34;100.00;100750.03;4946871;28;20055;-85
2022/12/16 03:10:07;;;;;;;4.72;1.80;;;;;;;-1.40;100.00;100756.78;4951945;29;20094;-85
2022/12/16 03:12:37;;;;;;;3.75;1.38;;;;;;;-1.50;100.00;100740.44;4951064;28;20059;-85
2022/12/16 03:15:04;;;;;;;4.53;1.63;;;;;;;-1.53;100.00;100748.94;4941298;29;20047;-86
2022/12/16 03:17:31;;;;;;;2.92;1.30;;;;;;;-1.58;100.00;100739.47;4946398;28;20062;-85
2022/12/16 03:20:23;;;;;;;9.00;1.80;;;;;;;-1.48;100.00;100743.03;4962825;28;20051;-85
2022/12/16 03:22:53;;;;;;;4.03;1.42;;;;;;;-1.65;100.00;100729.97;4948403;28;20528;-85
2022/12/16 03:25:21;;;;;;;6.88;1.52;;;;;;;-1.58;100.00;100742.88;4952767;29;20549;-85
2022/12/16 03:28:10;;;;;;;3.35;1.38;;;;;;;-1.53;100.00;100753.22;4952606;28;20051;-85
2022/12/16 03:30:44;;;;;;;4.70;1.60;;;;;;;-1.58;100.00;100754.88;4950974;29;20098;-85
2022/12/16 03:33:28;;;;;;;3.25;1.27;;;;;;;-1.55;100.00;100750.63;4948940;28;20106;-85
2022/12/16 03:36:06;;;;;;;4.00;1.33;;;;;;;-1.69;100.00;100733.34;4952335;28;20058;-85
2022/12/16 03:38:34;;;;;;;4.07;1.63;;;;;;;-1.65;100.00;100743.66;4945908;28;20047;-85
2022/12/16 03:41:04;;;;;;;3.92;1.30;;;;;;;-1.66;100.00;100752.22;4950893;28;20098;-86
2022/12/16 03:43:31;;;;;;;3.78;1.83;;;;;;;-1.78;100.00;100728.97;4935755;29;20052;-86
2022/12/16 03:46:03;;;;;;;6.88;1.92;;;;;;;-1.67;100.00;100753.06;4934296;28;20063;-86
2022/12/16 03:48:29;;;;;;;4.45;1.40;;;;;;;-1.80;100.00;100743.47;4962199;28;20066;-85
2022/12/16 03:50:56;;;;;;;3.45;1.40;;;;;;;-1.97;100.00;100725.28;4941927;28;20090;-86
2022/12/16 03:53:25;;;;;;;4.32;1.40;;;;;;;-2.16;100.00;100688.25;4951990;28;20051;-85
2022/12/16 03:55:53;;;;;;;3.03;1.40;;;;;;;-2.24;100.00;100677.03;4947691;29;20058;-85
2022/12/16 03:58:20;;;;;;;3.60;1.52;;;;;;;-2.00;100.00;100710.72;4953026;28;20062;-85
2022/12/16 04:00:47;;;;;;;7.25;2.00;;;;;;;-2.22;100.00;100693.31;4949110;28;20047;-85
2022/12/16 04:03:14;;;;;;;3.47;1.73;;;;;;;-2.14;100.00;100720.78;4955445;28;20047;-85
2022/12/16 04:05:41;;;;;;;4.18;1.70;;;;;;;-2.26;100.00;100725.75;4951971;28;20079;-85
2022/12/16 04:08:07;;;;;;;4.03;1.50;;;;;;;-2.35;100.00;100694.84;4945668;28;20085;-85
2022/12/16 04:24:29;;;;;;;8.10;1.63;;;;;;;-2.65;100.00;100677.31;4948989;28;20102;-85
2022/12/16 04:34:24;;;;;;;4.60;1.80;;;;;;;-2.55;100.00;100715.03;4941535;28;20151;-85
